Time;durP1;ratioP1;P1;durP2;ratioP2;P2;SDS_P1;SDS_P2;PMS_P1;PMS_P2;Temp;Humidity;BMP_temperature;BMP_pressure;BME280_temperature;BME280_humidity;BME280_pressure;Samples;Min_cycle;Max_cycle;Signal;HPM_P1;HPM_P2
2022/06/02 00:00:15;;;;;;;3.05;1.50;;;;;;;;;;5024265;28;20050;-66
2022/06/02 00:02:56;;;;;;;3.03;1.60;;;;;;;;;;5031170;28;20057;-67
2022/06/02 00:05:28;;;;;;;3.55;1.75;;;;;;;;;;5017045;28;20049;-67
2022/06/02 00:08:01;;;;;;;4.07;1.60;;;;;;;;;;4988059;28;20041;-67
2022/06/02 00:10:34;;;;;;;3.95;1.90;;;;;;;;;;5020355;28;20053;-67
2022/06/02 00:13:17;;;;;;;2.28;1.50;;;;;;;;;;5020167;28;20053;-66
2022/06/02 00:15:45;;;;;;;3.17;1.65;;;;;;;;;;5027564;28;20061;-69
2022/06/02 00:18:13;;;;;;;2.13;1.40;;;;;;;;;;5017908;28;20046;-67
2022/06/02 00:20:50;;;;;;;2.40;1.60;;;;;;;;;;5007652;28;20053;-67
2022/06/02 00:23:31;;;;;;;2.88;1.60;;;;;;;;;;5007905;28;20059;-66
2022/06/02 00:26:03;;;;;;;3.20;1.67;;;;;;;;;;5004941;28;20081;-68
2022/06/02 00:28:33;;;;;;;3.33;1.65;;;;;;;;;;5001478;28;20056;-66
2022/06/02 00:31:03;;;;;;;2.67;1.65;;;;;;;;;;5007364;28;20057;-67
2022/06/02 00:33:35;;;;;;;4.28;1.80;;;;;;;;;;5001990;28;20057;-68
2022/06/02 00:36:04;;;;;;;5.13;1.83;;;;;;;;;;5006818;28;20100;-67
2022/06/02 00:38:34;;;;;;;4.35;1.90;;;;;;;;;;5004552;28;20053;-67
2022/06/02 00:41:07;;;;;;;4.00;2.15;;;;;;;;;;5022743;28;20135;-69
2022/06/02 00:43:48;;;;;;;3.85;1.90;;;;;;;;;;5007182;28;20050;-66
2022/06/02 00:46:18;;;;;;;3.55;1.73;;;;;;;;;;5006939;28;20053;-66
2022/06/02 00:48:52;;;;;;;3.53;1.60;;;;;;;;;;5007071;28;20058;-68
2022/06/02 00:51:23;;;;;;;2.88;1.67;;;;;;;;;;5021104;28;20045;-69
2022/06/02 00:59:28;;;;;;;4.47;1.67;;;;;;;;;;5022194;28;19921;-69
2022/06/02 01:01:55;;;;;;;3.78;1.80;;;;;;;;;;5006596;28;20072;-67
2022/06/02 01:04:23;;;;;;;5.57;2.03;;;;;;;;;;5007419;28;20065;-69
2022/06/02 01:07:01;;;;;;;4.10;2.22;;;;;;;;;;5020570;28;20084;-67
2022/06/02 01:09:43;;;;;;;3.83;1.88;;;;;;;;;;5027199;28;20077;-69
2022/06/02 01:12:14;;;;;;;4.00;1.60;;;;;;;;;;5002290;28;20060;-67
2022/06/02 01:15:02;;;;;;;4.47;2.10;;;;;;;;;;4993395;28;20059;-68
2022/06/02 01:17:35;;;;;;;6.93;2.03;;;;;;;;;;5011152;28;20054;-69
2022/06/02 01:20:26;;;;;;;3.58;1.83;;;;;;;;;;5002530;28;20069;-69
2022/06/02 01:23:10;;;;;;;5.88;1.92;;;;;;;;;;4971944;28;20061;-68
2022/06/02 01:25:49;;;;;;;4.78;2.30;;;;;;;;;;5000199;28;20046;-69
2022/06/02 01:28:30;;;;;;;4.72;1.95;;;;;;;;;;4995817;28;20143;-67
2022/06/02 01:31:01;;;;;;;3.80;2.00;;;;;;;;;;4998614;28;20057;-67
2022/06/02 01:33:35;;;;;;;6.50;2.75;;;;;;;;;;4987462;28;20081;-67
2022/06/02 01:36:06;;;;;;;3.70;1.98;;;;;;;;;;4983138;28;20058;-66
2022/06/02 01:38:36;;;;;;;5.95;2.10;;;;;;;;;;4991208;28;20062;-68
2022/06/02 01:41:06;;;;;;;3.88;2.05;;;;;;;;;;4985695;28;20058;-69
2022/06/02 01:43:37;;;;;;;6.65;2.67;;;;;;;;;;4990904;28;20073;-66
2022/06/02 01:46:23;;;;;;;3.83;2.00;;;;;;;;;;4991263;28;20085;-69
2022/06/02 01:48:54;;;;;;;6.03;2.30;;;;;;;;;;5006874;28;20062;-68
2022/06/02 01:51:26;;;;;;;5.60;2.10;;;;;;;;;;4987013;28;20050;-66
2022/06/02 01:54:02;;;;;;;5.57;2.30;;;;;;;;;;4991483;28;20057;-67
2022/06/02 01:56:35;;;;;;;4.63;2.28;;;;;;;;;;5008513;28;20076;-67
2022/06/02 01:59:08;;;;;;;6.13;2.47;;;;;;;;;;5010790;28;20065;-67
2022/06/02 02:01:42;;;;;;;5.13;2.00;;;;;;;;;;5026438;28;20049;-67
2022/06/02 02:04:17;;;;;;;6.75;2.78;;;;;;;;;;5007053;28;20061;-66
2022/06/02 02:06:47;;;;;;;4.32;2.25;;;;;;;;;;5008623;28;20077;-66
2022/06/02 02:09:20;;;;;;;3.50;2.13;;;;;;;;;;5003842;28;20060;-66
2022/06/02 02:11:50;;;;;;;4.18;2.33;;;;;;;;;;5009668;28;20050;-66
2022/06/02 02:14:38;;;;;;;4.97;2.15;;;;;;;;;;5004002;28;20050;-67
2022/06/02 02:17:04;;;;;;;;;;;;;;;;;;5010535;28;20129;-67
2022/06/02 02:19:36;;;;;;;4.40;2.10;;;;;;;;;;5006107;28;19925;-67
2022/06/02 02:22:05;;;;;;;5.28;2.45;;;;;;;;;;5009419;28;20149;-69
2022/06/02 02:24:35;;;;;;;5.82;2.38;;;;;;;;;;4988977;28;20145;-67
2022/06/02 02:27:08;;;;;;;6.18;2.40;;;;;;;;;;4990529;28;20054;-68
2022/06/02 02:29:40;;;;;;;4.35;2.10;;;;;;;;;;4998617;28;20066;-67
2022/06/02 02:32:12;;;;;;;7.03;2.75;;;;;;;;;;5009210;28;20042;-69
2022/06/02 02:34:46;;;;;;;4.35;2.20;;;;;;;;;;4990817;28;20060;-67
2022/06/02 02:37:15;;;;;;;5.13;2.50;;;;;;;;;;4990580;28;20046;-67
2022/06/02 02:39:46;;;;;;;3.78;2.28;;;;;;;;;;4985398;28;20059;-66
2022/06/02 02:42:15;;;;;;;4.45;2.33;;;;;;;;;;4989811;28;20054;-67
2022/06/02 02:44:46;;;;;;;5.20;2.38;;;;;;;;;;4991910;28;20058;-69
2022/06/02 02:47:18;;;;;;;6.35;2.40;;;;;;;;;;5007321;28;20053;-68
2022/06/02 02:49:48;;;;;;;5.90;2.53;;;;;;;;;;5030084;28;20052;-66
2022/06/02 02:52:18;;;;;;;4.85;2.40;;;;;;;;;;5028824;28;20049;-67
2022/06/02 02:54:47;;;;;;;4.80;2.42;;;;;;;;;;5016795;28;20087;-66
2022/06/02 02:57:17;;;;;;;5.45;2.38;;;;;;;;;;5009270;28;20062;-69
2022/06/02 02:59:49;;;;;;;5.15;2.40;;;;;;;;;;5009879;28;20068;-67
2022/06/02 03:02:21;;;;;;;4.78;2.28;;;;;;;;;;5028703;28;20057;-66
2022/06/02 03:04:54;;;;;;;4.15;2.38;;;;;;;;;;5018478;28;20063;-68
2022/06/02 03:07:21;;;;;;;4.88;2.45;;;;;;;;;;5008214;28;20144;-69
2022/06/02 03:09:54;;;;;;;4.90;2.67;;;;;;;;;;5005833;28;20049;-67
2022/06/02 03:12:26;;;;;;;6.63;2.67;;;;;;;;;;5028193;28;20054;-68
2022/06/02 03:15:07;;;;;;;5.78;2.67;;;;;;;;;;5020610;28;20057;-67
2022/06/02 03:17:38;;;;;;;6.90;2.60;;;;;;;;;;5020114;28;20053;-67
2022/06/02 03:20:10;;;;;;;5.07;2.60;;;;;;;;;;5022526;28;20191;-66
2022/06/02 03:22:45;;;;;;;7.20;2.70;;;;;;;;;;5024905;28;20057;-66
2022/06/02 03:25:14;;;;;;;4.78;2.60;;;;;;;;;;5002139;28;20053;-66
2022/06/02 03:27:45;;;;;;;4.70;2.38;;;;;;;;;;5008543;28;20058;-66
2022/06/02 03:30:17;;;;;;;5.50;2.53;;;;;;;;;;5005280;28;20058;-66
2022/06/02 03:32:52;;;;;;;7.15;3.15;;;;;;;;;;5024550;28;20133;-66
2022/06/02 03:35:27;;;;;;;4.50;2.40;;;;;;;;;;5008689;28;20045;-66
2022/06/02 03:38:00;;;;;;;4.82;2.67;;;;;;;;;;5008169;28;20069;-66
2022/06/02 03:40:31;;;;;;;7.95;2.88;;;;;;;;;;4997684;28;20057;-66
2022/06/02 03:43:02;;;;;;;7.25;3.10;;;;;;;;;;5035505;28;20042;-67
2022/06/02 03:45:45;;;;;;;6.90;2.88;;;;;;;;;;5008268;28;20049;-66
2022/06/02 03:48:31;;;;;;;6.35;3.35;;;;;;;;;;5019786;28;20072;-67
2022/06/02 03:51:07;;;;;;;5.75;2.72;;;;;;;;;;5006967;28;20132;-66
2022/06/02 03:53:48;;;;;;;5.72;2.75;;;;;;;;;;5008280;28;20066;-66
2022/06/02 03:56:27;;;;;;;5.53;3.00;;;;;;;;;;5004573;28;20088;-67
2022/06/02 03:59:01;;;;;;;5.47;2.90;;;;;;;;;;5008182;28;20081;-67
2022/06/02 04:01:30;;;;;;;6.47;3.20;;;;;;;;;;5004044;28;20104;-66
2022/06/02 04:04:06;;;;;;;7.78;2.78;;;;;;;;;;5027110;28;20057;-65
2022/06/02 04:06:41;;;;;;;6.50;3.08;;;;;;;;;;5027212;28;20046;-66
2022/06/02 04:09:13;;;;;;;6.80;3.42;;;;;;;;;;5028072;28;20057;-67
2022/06/02 04:14:43;;;;;;;5.95;2.58;;;;;;;;;;5007770;28;20054;-66
2022/06/02 04:17:16;;;;;;;7.38;3.38;;;;;;;;;;5003450;28;20059;-66
2022/06/02 04:22:44;;;;;;;6.68;3.17;;;;;;;;;;5005564;28;20053;-67
2022/06/02 04:25:19;;;;;;;5.97;3.00;;;;;;;;;;5027751;28;20140;-66
2022/06/02 04:27:49;;;;;;;7.82;3.20;;;;;;;;;;5022014;28;20135;-66
2022/06/02 04:30:20;;;;;;;6.47;3.17;;;;;;;;;;5026939;28;20052;-66
2022/06/02 04:32:52;;;;;;;6.57;3.08;;;;;;;;;;5020767;28;20128;-66
2022/06/02 04:35:27;;;;;;;5.57;2.90;;;;;;;;;;5027785;28;20045;-67
2022/06/02 04:37:59;;;;;;;7.05;3.40;;;;;;;;;;5022204;28;20073;-66
2022/06/02 04:40:30;;;;;;;6.88;3.42;;;;;;;;;;5007270;28;20053;-67
2022/06/02 04:43:03;;;;;;;6.18;3.10;;;;;;;;;;5007255;28;20050;-66
2022/06/02 04:45:36;;;;;;;5.93;3.10;;;;;;;;;;5025602;28;20057;-67
2022/06/02 04:48:07;;;;;;;6.50;3.55;;;;;;;;;;5025931;28;20045;-67
2022/06/02 04:50:38;;;;;;;6.15;3.28;;;;;;;;;;5000694;28;20109;-65
2022/06/02 04:53:11;;;;;;;6.60;3.25;;;;;;;;;;5007550;28;20058;-66
2022/06/02 04:55:41;;;;;;;10.30;3.90;;;;;;;;;;4976629;28;20059;-66
2022/06/02 04:58:13;;;;;;;6.90;3.70;;;;;;;;;;5003972;28;20061;-66
2022/06/02 05:00:43;;;;;;;9.07;3.50;;;;;;;;;;4995720;28;20053;-66
2022/06/02 05:03:13;;;;;;;6.60;3.17;;;;;;;;;;5003799;28;20110;-66
2022/06/02 05:05:44;;;;;;;8.35;4.03;;;;;;;;;;4978947;28;20081;-66
2022/06/02 05:08:29;;;;;;;10.40;3.75;;;;;;;;;;5003478;28;20135;-66
2022/06/02 05:11:04;;;;;;;7.72;3.40;;;;;;;;;;4995886;28;20112;-66
2022/06/02 05:13:36;;;;;;;8.25;3.60;;;;;;;;;;5018083;28;20075;-66
2022/06/02 05:16:12;;;;;;;8.48;3.33;;;;;;;;;;5016601;28;20053;-66
2022/06/02 05:18:57;;;;;;;9.05;4.72;;;;;;;;;;5028509;28;20053;-67
2022/06/02 05:21:34;;;;;;;12.15;5.97;;;;;;;;;;5033854;28;20057;-66
2022/06/02 05:24:13;;;;;;;10.02;4.97;;;;;;;;;;5026102;28;20152;-67
2022/06/02 05:26:57;;;;;;;8.55;4.38;;;;;;;;;;5032627;28;20062;-66
2022/06/02 05:29:38;;;;;;;7.63;3.45;;;;;;;;;;5024774;28;20057;-67
2022/06/02 05:32:30;;;;;;;7.13;3.67;;;;;;;;;;5031587;28;20153;-66
2022/06/02 05:35:16;;;;;;;42.67;18.65;;;;;;;;;;5024624;28;20113;-66
2022/06/02 05:37:50;;;;;;;30.30;15.18;;;;;;;;;;5017383;28;20125;-66
2022/06/02 05:40:21;;;;;;;13.93;6.80;;;;;;;;;;5017691;28;20494;-67
2022/06/02 05:42:56;;;;;;;17.38;6.97;;;;;;;;;;5039702;28;20053;-67
2022/06/02 05:45:33;;;;;;;18.23;8.27;;;;;;;;;;5027907;28;20060;-67
2022/06/02 05:48:04;;;;;;;14.35;8.10;;;;;;;;;;5031447;28;20045;-66
2022/06/02 05:50:36;;;;;;;7.53;4.00;;;;;;;;;;5026297;28;20111;-66
2022/06/02 05:53:09;;;;;;;6.13;3.00;;;;;;;;;;5025317;28;20125;-67
2022/06/02 05:55:47;;;;;;;8.40;3.78;;;;;;;;;;5025210;28;20053;-67
2022/06/02 05:58:24;;;;;;;6.97;3.58;;;;;;;;;;5046010;28;20063;-68
2022/06/02 06:01:01;;;;;;;7.72;4.03;;;;;;;;;;5017035;28;20049;-67
2022/06/02 06:03:43;;;;;;;8.45;4.20;;;;;;;;;;5018720;28;20069;-67
2022/06/02 06:06:18;;;;;;;12.52;6.53;;;;;;;;;;5023456;28;20136;-67
2022/06/02 06:08:57;;;;;;;7.03;3.65;;;;;;;;;;5029505;28;20053;-69
2022/06/02 06:11:50;;;;;;;8.45;3.75;;;;;;;;;;5022831;28;20049;-67
2022/06/02 06:14:20;;;;;;;15.50;6.55;;;;;;;;;;5028757;28;20053;-67
2022/06/02 06:16:57;;;;;;;10.73;5.18;;;;;;;;;;5022122;28;20064;-66
2022/06/02 06:19:39;;;;;;;14.05;7.47;;;;;;;;;;5029155;28;20053;-66
2022/06/02 06:22:16;;;;;;;12.77;6.45;;;;;;;;;;5025953;28;20084;-68
2022/06/02 06:25:02;;;;;;;13.63;6.28;;;;;;;;;;5006606;28;20064;-67
2022/06/02 06:27:33;;;;;;;16.45;8.10;;;;;;;;;;5025843;28;20070;-67
2022/06/02 06:30:06;;;;;;;13.73;7.55;;;;;;;;;;5041495;28;20053;-66
2022/06/02 06:32:37;;;;;;;16.42;7.43;;;;;;;;;;5029260;28;20054;-66
2022/06/02 06:35:11;;;;;;;16.85;8.18;;;;;;;;;;5022411;28;20057;-65
2022/06/02 06:37:58;;;;;;;15.10;8.20;;;;;;;;;;5029300;28;20054;-65
2022/06/02 06:40:36;;;;;;;9.17;4.73;;;;;;;;;;5022808;28;20144;-66
2022/06/02 06:43:10;;;;;;;11.95;6.10;;;;;;;;;;5028915;28;20057;-65
2022/06/02 06:45:42;;;;;;;8.77;4.55;;;;;;;;;;5022915;28;20059;-66
2022/06/02 06:48:14;;;;;;;19.27;7.03;;;;;;;;;;5029076;28;20054;-66
2022/06/02 06:50:43;;;;;;;8.75;4.63;;;;;;;;;;5022676;28;20176;-65
2022/06/02 06:53:16;;;;;;;12.93;5.78;;;;;;;;;;5029401;28;20068;-66
2022/06/02 06:55:50;;;;;;;13.32;6.78;;;;;;;;;;5026374;28;20059;-68
2022/06/02 06:58:34;;;;;;;9.13;4.85;;;;;;;;;;5026053;28;20057;-66
2022/06/02 07:01:05;;;;;;;8.45;3.78;;;;;;;;;;5010532;28;20053;-66
2022/06/02 07:03:39;;;;;;;13.13;6.32;;;;;;;;;;5019357;28;20145;-66
2022/06/02 07:06:10;;;;;;;10.18;5.15;;;;;;;;;;5011459;28;20042;-66
2022/06/02 07:08:38;;;;;;;12.60;6.13;;;;;;;;;;5023293;28;20057;-66
2022/06/02 07:11:08;;;;;;;6.78;3.78;;;;;;;;;;5028555;28;20053;-66
2022/06/02 07:13:39;;;;;;;7.88;4.03;;;;;;;;;;5023392;28;20057;-66
2022/06/02 07:16:18;;;;;;;12.50;5.78;;;;;;;;;;5029908;28;20045;-66
2022/06/02 07:18:51;;;;;;;8.27;4.43;;;;;;;;;;5023066;28;20074;-66
2022/06/02 07:21:29;;;;;;;10.45;5.68;;;;;;;;;;5029229;28;20049;-66
2022/06/02 07:24:07;;;;;;;8.63;4.90;;;;;;;;;;5023866;28;20060;-66
2022/06/02 07:26:45;;;;;;;11.63;5.72;;;;;;;;;;5031395;28;20053;-66
2022/06/02 07:29:21;;;;;;;10.10;4.82;;;;;;;;;;5027055;28;20059;-66
2022/06/02 07:31:57;;;;;;;12.15;5.15;;;;;;;;;;5029877;28;20061;-66
2022/06/02 07:34:41;;;;;;;6.38;3.70;;;;;;;;;;5029188;28;20072;-66
2022/06/02 07:37:17;;;;;;;8.43;4.53;;;;;;;;;;5026574;28;20115;-66
2022/06/02 07:40:05;;;;;;;14.35;5.10;;;;;;;;;;5027599;28;20140;-66
2022/06/02 07:42:52;;;;;;;10.68;5.82;;;;;;;;;;5018243;28;20049;-66
2022/06/02 07:45:32;;;;;;;19.40;8.90;;;;;;;;;;5022688;28;20057;-66
2022/06/02 07:48:06;;;;;;;11.00;6.30;;;;;;;;;;5021940;28;20148;-66
2022/06/02 07:50:33;;;;;;;10.98;5.18;;;;;;;;;;5027581;28;20084;-66
2022/06/02 07:53:06;;;;;;;11.38;5.07;;;;;;;;;;5021232;28;20053;-66
2022/06/02 07:55:41;;;;;;;14.10;4.95;;;;;;;;;;5027397;28;20056;-66
2022/06/02 07:58:12;;;;;;;9.23;4.95;;;;;;;;;;5021447;28;20061;-66
2022/06/02 08:00:44;;;;;;;8.93;4.50;;;;;;;;;;5026646;28;20046;-66
2022/06/02 08:03:30;;;;;;;10.77;4.70;;;;;;;;;;5007521;28;20065;-66
2022/06/02 08:06:00;;;;;;;11.18;4.80;;;;;;;;;;5022542;28;20045;-66
2022/06/02 08:08:30;;;;;;;8.98;4.70;;;;;;;;;;5025176;28;20065;-67
2022/06/02 08:11:08;;;;;;;11.00;4.53;;;;;;;;;;5034372;28;20117;-66
2022/06/02 08:13:39;;;;;;;6.72;3.17;;;;;;;;;;5022351;28;20061;-67
2022/06/02 08:16:11;;;;;;;9.38;4.75;;;;;;;;;;5001357;28;20042;-67
2022/06/02 08:18:56;;;;;;;8.85;4.00;;;;;;;;;;5007613;28;21231;-66
2022/06/02 08:21:28;;;;;;;8.15;3.70;;;;;;;;;;4998344;28;20061;-66
2022/06/02 08:24:10;;;;;;;7.57;3.83;;;;;;;;;;5000750;28;20135;-66
2022/06/02 08:26:41;;;;;;;9.88;3.83;;;;;;;;;;4989326;28;20054;-67
2022/06/02 08:29:13;;;;;;;6.75;3.60;;;;;;;;;;5004898;28;20054;-67
2022/06/02 08:31:52;;;;;;;5.78;3.28;;;;;;;;;;5014304;28;20137;-67
2022/06/02 08:34:22;;;;;;;7.43;3.53;;;;;;;;;;5007755;28;20064;-67
2022/06/02 08:36:56;;;;;;;7.53;3.80;;;;;;;;;;4999731;28;20048;-67
2022/06/02 08:39:35;;;;;;;7.93;3.78;;;;;;;;;;5020106;28;20054;-67
2022/06/02 08:42:22;;;;;;;5.22;2.92;;;;;;;;;;5005606;28;20056;-66
2022/06/02 08:45:06;;;;;;;6.45;3.42;;;;;;;;;;5007864;28;20050;-67
2022/06/02 08:48:02;;;;;;;6.43;3.38;;;;;;;;;;4997518;28;20053;-67
2022/06/02 08:51:02;;;;;;;4.72;2.83;;;;;;;;;;5007737;28;20049;-67
2022/06/02 08:53:47;;;;;;;8.90;3.95;;;;;;;;;;4948391;28;20059;-67
2022/06/02 08:56:31;;;;;;;6.68;3.70;;;;;;;;;;4923385;29;20059;-67
2022/06/02 08:59:19;;;;;;;7.90;3.75;;;;;;;;;;4940959;28;20177;-67
2022/06/02 09:02:00;;;;;;;7.20;3.17;;;;;;;;;;4984337;28;20054;-66
2022/06/02 09:05:00;;;;;;;6.40;3.10;;;;;;;;;;5017567;28;20049;-66
2022/06/02 09:07:45;;;;;;;5.65;2.47;;;;;;;;;;5023645;28;20049;-66
2022/06/02 09:10:45;;;;;;;5.05;2.65;;;;;;;;;;5031025;28;20045;-68
2022/06/02 09:13:34;;;;;;;5.60;2.85;;;;;;;;;;4943671;28;20265;-66
2022/06/02 09:16:12;;;;;;;7.70;3.95;;;;;;;;;;4961591;28;20050;-68
2022/06/02 09:18:47;;;;;;;7.93;4.38;;;;;;;;;;4974753;28;20057;-67
2022/06/02 09:21:19;;;;;;;9.48;4.93;;;;;;;;;;5043826;28;20052;-66
2022/06/02 09:23:49;;;;;;;9.18;4.72;;;;;;;;;;5024973;28;20041;-67
2022/06/02 09:26:30;;;;;;;8.98;4.22;;;;;;;;;;5029276;28;20056;-67
2022/06/02 09:29:11;;;;;;;9.68;4.38;;;;;;;;;;5016668;28;20061;-69
2022/06/02 09:31:49;;;;;;;10.32;4.10;;;;;;;;;;5026235;28;20054;-68
2022/06/02 09:34:30;;;;;;;9.80;3.70;;;;;;;;;;5018185;28;20089;-67
2022/06/02 09:37:15;;;;;;;5.95;3.30;;;;;;;;;;5022943;28;20049;-66
2022/06/02 09:39:52;;;;;;;5.40;3.08;;;;;;;;;;5019152;28;20054;-67
2022/06/02 09:42:38;;;;;;;6.45;3.03;;;;;;;;;;5025655;28;20053;-68
2022/06/02 09:45:14;;;;;;;5.38;2.70;;;;;;;;;;5025956;28;20103;-67
2022/06/02 09:47:57;;;;;;;5.65;2.92;;;;;;;;;;5028488;28;20137;-68
2022/06/02 09:50:34;;;;;;;6.60;2.65;;;;;;;;;;5006369;28;20054;-68
2022/06/02 09:53:17;;;;;;;6.90;2.72;;;;;;;;;;5004632;28;20140;-68
2022/06/02 09:55:53;;;;;;;4.93;1.98;;;;;;;;;;5024067;28;20057;-68
2022/06/02 09:58:30;;;;;;;4.03;1.95;;;;;;;;;;5005081;28;20064;-69
2022/06/02 10:01:14;;;;;;;5.10;2.30;;;;;;;;;;5026561;28;20077;-69
2022/06/02 10:04:00;;;;;;;5.40;2.13;;;;;;;;;;5040385;28;20056;-68
2022/06/02 10:06:45;;;;;;;5.40;2.47;;;;;;;;;;5032696;28;20041;-68
2022/06/02 10:09:20;;;;;;;5.10;2.50;;;;;;;;;;5031024;28;20109;-67
2022/06/02 10:11:52;;;;;;;7.32;2.50;;;;;;;;;;5029287;28;20061;-66
2022/06/02 10:14:36;;;;;;;3.85;2.00;;;;;;;;;;5024813;28;20061;-66
2022/06/02 10:17:20;;;;;;;6.03;2.08;;;;;;;;;;5020781;28;20050;-67
2022/06/02 10:20:06;;;;;;;6.43;2.40;;;;;;;;;;5007294;28;20121;-66
2022/06/02 10:22:38;;;;;;;5.35;2.65;;;;;;;;;;5028555;28;20050;-69
2022/06/02 10:25:14;;;;;;;4.82;2.45;;;;;;;;;;5024248;28;20045;-67
2022/06/02 10:28:05;;;;;;;3.83;2.10;;;;;;;;;;5029310;28;20060;-67
2022/06/02 10:30:46;;;;;;;6.97;2.60;;;;;;;;;;5024137;28;20053;-67
2022/06/02 10:33:28;;;;;;;5.95;2.05;;;;;;;;;;5024955;28;20057;-69
2022/06/02 10:36:21;;;;;;;17.65;5.93;;;;;;;;;;5019923;28;20145;-68
2022/06/02 10:38:56;;;;;;;7.80;3.70;;;;;;;;;;5008877;28;20127;-69
2022/06/02 10:41:33;;;;;;;4.80;2.25;;;;;;;;;;5034394;28;20060;-69
2022/06/02 10:44:08;;;;;;;4.47;2.53;;;;;;;;;;5032005;28;20068;-67
2022/06/02 10:46:58;;;;;;;5.18;2.65;;;;;;;;;;5024721;28;20077;-68
2022/06/02 10:49:26;;;;;;;4.68;2.45;;;;;;;;;;5029141;28;20107;-67
2022/06/02 10:52:07;;;;;;;5.30;1.92;;;;;;;;;;5019626;28;20049;-67
2022/06/02 10:54:46;;;;;;;8.70;2.55;;;;;;;;;;5008331;28;20100;-67
2022/06/02 10:57:12;;;;;;;;;;;;;;;;;;5036350;28;20053;-67
2022/06/02 11:00:03;;;;;;;5.00;2.88;;;;;;;;;;5030008;28;19925;-69
2022/06/02 11:02:48;;;;;;;7.38;3.25;;;;;;;;;;5004762;28;20060;-67
2022/06/02 11:05:30;;;;;;;5.97;3.42;;;;;;;;;;5030802;28;20049;-68
2022/06/02 11:08:15;;;;;;;5.68;2.88;;;;;;;;;;5020409;28;20064;-66
2022/06/02 11:10:52;;;;;;;5.10;2.15;;;;;;;;;;5028159;28;20184;-65
2022/06/02 11:13:30;;;;;;;3.85;2.10;;;;;;;;;;5038814;28;20064;-67
2022/06/02 11:16:04;;;;;;;4.38;2.15;;;;;;;;;;5048209;28;20059;-68
2022/06/02 11:18:40;;;;;;;4.97;2.17;;;;;;;;;;5022463;28;20083;-65
2022/06/02 11:21:27;;;;;;;4.47;2.58;;;;;;;;;;5027610;28;20072;-67
2022/06/02 11:24:11;;;;;;;4.38;1.80;;;;;;;;;;5025144;28;20057;-71
2022/06/02 11:26:59;;;;;;;4.68;2.30;;;;;;;;;;5026217;28;20091;-69
2022/06/02 11:29:40;;;;;;;6.32;3.20;;;;;;;;;;5025477;28;20108;-68
2022/06/02 11:32:25;;;;;;;5.35;2.45;;;;;;;;;;5005483;28;20058;-67
2022/06/02 11:35:05;;;;;;;4.50;2.40;;;;;;;;;;5043902;28;20171;-66
2022/06/02 11:37:40;;;;;;;4.03;2.05;;;;;;;;;;5019424;28;20105;-66
2022/06/02 11:40:33;;;;;;;3.45;1.70;;;;;;;;;;5008319;28;20137;-66
2022/06/02 11:43:12;;;;;;;6.13;1.92;;;;;;;;;;5003195;28;20077;-69
2022/06/02 11:45:49;;;;;;;7.63;2.90;;;;;;;;;;5008594;28;20061;-71
2022/06/02 11:48:23;;;;;;;4.80;2.58;;;;;;;;;;5009628;28;20049;-67
2022/06/02 11:51:10;;;;;;;6.15;2.70;;;;;;;;;;5028707;28;20050;-69
2022/06/02 11:53:44;;;;;;;5.00;2.58;;;;;;;;;;5020194;28;20068;-65
2022/06/02 11:56:14;;;;;;;6.47;3.13;;;;;;;;;;5027647;28;20053;-66
2022/06/02 11:59:01;;;;;;;5.03;2.45;;;;;;;;;;5022557;28;20084;-66
2022/06/02 12:01:44;;;;;;;5.40;3.10;;;;;;;;;;5022822;28;20065;-65
2022/06/02 12:04:32;;;;;;;3.35;1.70;;;;;;;;;;5004419;28;20049;-68
2022/06/02 12:07:26;;;;;;;5.60;2.08;;;;;;;;;;5036311;28;20052;-65
2022/06/02 12:10:16;;;;;;;6.03;2.90;;;;;;;;;;5024278;28;20088;-67
2022/06/02 12:13:01;;;;;;;3.72;2.25;;;;;;;;;;4957071;28;20065;-68
2022/06/02 12:15:48;;;;;;;4.38;1.52;;;;;;;;;;5020141;28;20099;-72
2022/06/02 12:18:20;;;;;;;3.38;1.90;;;;;;;;;;5015042;28;20064;-69
2022/06/02 12:21:05;;;;;;;6.63;1.83;;;;;;;;;;5020961;28;20085;-67
2022/06/02 12:23:47;;;;;;;7.03;2.80;;;;;;;;;;5000048;28;20058;-69
2022/06/02 12:26:19;;;;;;;4.10;2.17;;;;;;;;;;5024051;28;20124;-69
2022/06/02 12:28:50;;;;;;;5.85;3.20;;;;;;;;;;5027708;28;20053;-70
2022/06/02 12:31:35;;;;;;;4.97;2.47;;;;;;;;;;5021786;28;20055;-67
2022/06/02 12:34:12;;;;;;;3.58;1.50;;;;;;;;;;4997581;28;20053;-68
2022/06/02 12:36:47;;;;;;;3.83;1.80;;;;;;;;;;5017722;28;20057;-65
2022/06/02 12:39:30;;;;;;;4.70;2.08;;;;;;;;;;5007928;28;20084;-69
2022/06/02 12:42:11;;;;;;;2.10;1.48;;;;;;;;;;5023650;28;20103;-72
2022/06/02 12:44:52;;;;;;;5.43;2.30;;;;;;;;;;5005079;28;20057;-72
2022/06/02 12:47:32;;;;;;;6.43;2.30;;;;;;;;;;5004027;28;20062;-71
2022/06/02 12:50:09;;;;;;;8.85;3.42;;;;;;;;;;5001527;28;20109;-75
2022/06/02 12:52:52;;;;;;;5.50;2.85;;;;;;;;;;4987511;28;20061;-73
2022/06/02 12:55:22;;;;;;;3.75;2.25;;;;;;;;;;4982948;28;20054;-65
2022/06/02 12:58:03;;;;;;;3.13;1.88;;;;;;;;;;5007063;28;20060;-70
2022/06/02 13:00:39;;;;;;;6.30;3.13;;;;;;;;;;4997225;28;20114;-70
2022/06/02 13:03:24;;;;;;;6.97;2.00;;;;;;;;;;4990258;28;20058;-77
2022/06/02 13:06:05;;;;;;;7.63;2.25;;;;;;;;;;4993505;28;20061;-71
2022/06/02 13:08:47;;;;;;;3.08;1.70;;;;;;;;;;4977556;28;20050;-71
2022/06/02 13:11:24;;;;;;;3.25;1.40;;;;;;;;;;4987525;28;20104;-73
2022/06/02 13:14:05;;;;;;;2.13;1.27;;;;;;;;;;5026246;28;20057;-68
2022/06/02 13:16:53;;;;;;;3.80;1.65;;;;;;;;;;5010318;28;20053;-70
2022/06/02 13:19:46;;;;;;;2.45;1.65;;;;;;;;;;4987946;28;20054;-71
2022/06/02 13:22:32;;;;;;;4.22;2.25;;;;;;;;;;4982159;28;20058;-73
2022/06/02 13:25:29;;;;;;;3.55;1.23;;;;;;;;;;4987652;28;20058;-66
2022/06/02 13:28:14;;;;;;;5.47;2.22;;;;;;;;;;4994059;28;20141;-69
2022/06/02 13:30:47;;;;;;;2.40;1.23;;;;;;;;;;5006924;28;20074;-70
2022/06/02 13:33:32;;;;;;;3.25;1.40;;;;;;;;;;4991316;28;20054;-72
2022/06/02 13:36:29;;;;;;;3.30;1.73;;;;;;;;;;4990731;28;20050;-70
2022/06/02 13:39:13;;;;;;;5.28;2.33;;;;;;;;;;4985251;28;20058;-71
2022/06/02 13:41:58;;;;;;;5.18;1.52;;;;;;;;;;4990513;28;20046;-69
2022/06/02 13:44:40;;;;;;;3.25;1.38;;;;;;;;;;4990876;28;20101;-69
2022/06/02 13:47:24;;;;;;;2.55;1.40;;;;;;;;;;4973697;28;20046;-69
2022/06/02 13:50:05;;;;;;;4.80;1.60;;;;;;;;;;4977828;28;20058;-71
2022/06/02 13:52:59;;;;;;;5.28;1.55;;;;;;;;;;4986224;28;20061;-68
2022/06/02 13:58:52;;;;;;;3.55;1.80;;;;;;;;;;4997104;28;20050;-67
2022/06/02 14:01:38;;;;;;;4.20;1.30;;;;;;;;;;4990608;28;20093;-68
2022/06/02 14:04:17;;;;;;;4.13;1.27;;;;;;;;;;4989044;28;20049;-66
2022/06/02 14:06:49;;;;;;;4.25;1.40;;;;;;;;;;4993255;28;20058;-69
2022/06/02 14:09:33;;;;;;;2.92;1.40;;;;;;;;;;4997153;28;20058;-68
2022/06/02 14:12:10;;;;;;;3.28;1.42;;;;;;;;;;5009653;28;20053;-68
2022/06/02 14:15:03;;;;;;;2.27;1.27;;;;;;;;;;5003225;28;20068;-72
2022/06/02 14:17:40;;;;;;;4.32;1.30;;;;;;;;;;5009570;28;20050;-67
2022/06/02 14:20:17;;;;;;;3.20;1.23;;;;;;;;;;5004444;28;20056;-67
2022/06/02 14:22:50;;;;;;;6.23;1.40;;;;;;;;;;5011930;28;20145;-69
2022/06/02 14:25:19;;;;;;;5.70;1.10;;;;;;;;;;4991817;28;20054;-67
2022/06/02 14:27:49;;;;;;;3.72;1.10;;;;;;;;;;4990642;28;20149;-65
2022/06/02 14:30:17;;;;;;;3.63;1.10;;;;;;;;;;4992721;28;20054;-68
2022/06/02 14:32:49;;;;;;;2.38;1.20;;;;;;;;;;4989970;28;20050;-69
2022/06/02 14:35:28;;;;;;;2.65;1.10;;;;;;;;;;5007622;28;20065;-68
2022/06/02 14:37:58;;;;;;;1.95;0.95;;;;;;;;;;4988247;28;20050;-66
2022/06/02 14:40:27;;;;;;;2.90;1.17;;;;;;;;;;4977608;28;20050;-69
2022/06/02 14:43:08;;;;;;;3.05;1.20;;;;;;;;;;4988815;28;20050;-66
2022/06/02 14:45:54;;;;;;;3.78;0.95;;;;;;;;;;4993972;28;20074;-68
2022/06/02 14:48:25;;;;;;;1.38;0.70;;;;;;;;;;5010382;28;20049;-65
2022/06/02 14:50:55;;;;;;;2.10;1.10;;;;;;;;;;4993541;28;20065;-66
2022/06/02 14:53:47;;;;;;;1.08;0.77;;;;;;;;;;4990517;28;20062;-67
2022/06/02 14:56:22;;;;;;;5.65;1.02;;;;;;;;;;4984558;28;20054;-66
2022/06/02 14:58:59;;;;;;;3.33;0.90;;;;;;;;;;4989848;28;20058;-66
2022/06/02 15:01:29;;;;;;;4.00;0.90;;;;;;;;;;4982892;28;20059;-66
2022/06/02 15:04:08;;;;;;;4.32;1.00;;;;;;;;;;4989072;28;20068;-66
2022/06/02 15:06:43;;;;;;;2.58;0.70;;;;;;;;;;4991585;28;20054;-66
2022/06/02 15:09:23;;;;;;;1.45;0.90;;;;;;;;;;5004063;28;20050;-66
2022/06/02 15:12:01;;;;;;;2.42;1.00;;;;;;;;;;4997825;28;20149;-66
2022/06/02 15:14:37;;;;;;;2.43;1.10;;;;;;;;;;5023620;28;20053;-67
2022/06/02 15:17:12;;;;;;;2.03;0.98;;;;;;;;;;4997735;28;20385;-66
2022/06/02 15:19:52;;;;;;;2.55;0.82;;;;;;;;;;5004493;28;20136;-66
2022/06/02 15:22:41;;;;;;;3.53;0.90;;;;;;;;;;5000420;28;20074;-66
2022/06/02 15:25:12;;;;;;;1.48;0.90;;;;;;;;;;4995038;28;20118;-65
2022/06/02 15:27:54;;;;;;;1.15;0.80;;;;;;;;;;4992126;28;20050;-65
2022/06/02 15:30:26;;;;;;;1.27;0.90;;;;;;;;;;5007724;28;20065;-69
2022/06/02 15:33:21;;;;;;;2.63;0.90;;;;;;;;;;5002154;28;20046;-68
2022/06/02 15:35:55;;;;;;;4.65;1.00;;;;;;;;;;5016857;28;20149;-65
2022/06/02 15:38:44;;;;;;;3.10;0.82;;;;;;;;;;5022066;28;20073;-65
2022/06/02 15:41:31;;;;;;;3.65;0.82;;;;;;;;;;5028409;28;20053;-66
2022/06/02 15:44:16;;;;;;;10.27;0.90;;;;;;;;;;5015665;28;20054;-69
2022/06/02 15:46:57;;;;;;;5.60;1.20;;;;;;;;;;5008944;28;20141;-66
2022/06/02 15:49:44;;;;;;;2.55;0.90;;;;;;;;;;5010267;28;20115;-70
2022/06/02 15:52:29;;;;;;;2.47;0.88;;;;;;;;;;4999163;28;20066;-68
2022/06/02 15:55:14;;;;;;;2.60;0.90;;;;;;;;;;4974876;28;20061;-66